createdAt,value
2022-12-27T00:00:16.485Z,100.00
2022-12-27T00:02:43.491Z,100.00
2022-12-27T00:05:11.609Z,100.00
2022-12-27T00:07:38.444Z,100.00
2022-12-27T00:10:06.341Z,100.00
2022-12-27T00:12:33.510Z,100.00
2022-12-27T00:15:00.443Z,100.00
2022-12-27T00:17:27.428Z,100.00
2022-12-27T00:19:54.220Z,100.00
2022-12-27T00:22:21.033Z,100.00
2022-12-27T00:24:47.888Z,100.00
2022-12-27T00:27:14.740Z,100.00
2022-12-27T00:29:41.589Z,100.00
2022-12-27T00:32:08.518Z,100.00
2022-12-27T00:34:36.002Z,100.00
2022-12-27T00:37:02.832Z,100.00
2022-12-27T00:39:29.619Z,100.00
2022-12-27T00:41:56.683Z,100.00
2022-12-27T00:44:23.502Z,100.00
2022-12-27T00:46:50.360Z,100.00
2022-12-27T00:49:17.232Z,100.00
2022-12-27T00:51:44.087Z,100.00
2022-12-27T00:54:11.008Z,100.00
2022-12-27T00:56:37.829Z,100.00
2022-12-27T00:59:05.118Z,100.00
2022-12-27T01:01:34.252Z,100.00
2022-12-27T01:04:01.552Z,100.00
2022-12-27T01:06:32.052Z,100.00
2022-12-27T01:08:59.736Z,100.00
2022-12-27T01:11:28.367Z,100.00
2022-12-27T01:13:59.855Z,100.00
2022-12-27T01:16:27.689Z,100.00
2022-12-27T01:18:54.735Z,100.00
2022-12-27T01:21:23.046Z,100.00
2022-12-27T01:23:50.287Z,100.00
2022-12-27T01:26:18.559Z,100.00
2022-12-27T01:28:46.152Z,100.00
2022-12-27T01:31:14.974Z,100.00
2022-12-27T01:33:41.975Z,100.00
2022-12-27T01:36:08.778Z,100.00
2022-12-27T01:38:35.626Z,100.00
2022-12-27T01:41:22.516Z,100.00
2022-12-27T01:43:49.357Z,100.00
2022-12-27T01:46:16.484Z,100.00
2022-12-27T01:48:43.473Z,100.00
2022-12-27T01:51:10.935Z,100.00
2022-12-27T01:53:39.447Z,100.00
2022-12-27T01:56:09.768Z,100.00
2022-12-27T01:58:42.461Z,100.00
2022-12-27T02:01:12.984Z,100.00
2022-12-27T02:03:41.461Z,100.00
2022-12-27T02:06:09.715Z,100.00
2022-12-27T02:08:55.998Z,100.00
2022-12-27T02:11:44.589Z,100.00
2022-12-27T02:14:11.950Z,100.00
2022-12-27T02:16:38.822Z,100.00
2022-12-27T02:19:08.436Z,100.00
2022-12-27T02:21:44.546Z,100.00
2022-12-27T02:24:23.526Z,100.00
2022-12-27T02:26:56.442Z,100.00
2022-12-27T02:29:32.146Z,100.00
2022-12-27T02:32:10.518Z,100.00
2022-12-27T02:34:43.081Z,100.00
2022-12-27T02:37:12.328Z,100.00
2022-12-27T02:39:41.562Z,100.00
2022-12-27T02:42:27.863Z,100.00
2022-12-27T02:45:17.578Z,100.00
2022-12-27T02:48:05.332Z,100.00
2022-12-27T02:50:57.388Z,100.00
2022-12-27T02:53:27.293Z,100.00
2022-12-27T02:56:12.806Z,100.00
2022-12-27T02:58:42.371Z,100.00
2022-12-27T03:01:27.803Z,100.00
2022-12-27T03:04:05.612Z,100.00
2022-12-27T03:06:52.795Z,100.00
2022-12-27T03:10:01.210Z,100.00
2022-12-27T03:12:55.928Z,100.00
2022-12-27T03:15:41.604Z,100.00
2022-12-27T03:18:14.316Z,100.00
2022-12-27T03:21:01.082Z,100.00
2022-12-27T03:23:46.678Z,100.00
2022-12-27T03:26:15.220Z,100.00
2022-12-27T03:29:02.765Z,100.00
2022-12-27T03:31:51.864Z,100.00
2022-12-27T03:34:39.802Z,100.00
2022-12-27T03:37:33.938Z,100.00
2022-12-27T03:40:07.051Z,100.00
2022-12-27T03:42:55.973Z,100.00
2022-12-27T03:45:42.761Z,100.00
2022-12-27T03:48:11.925Z,100.00
2022-12-27T03:50:50.991Z,100.00
2022-12-27T03:53:24.148Z,100.00
2022-12-27T03:55:51.115Z,100.00
2022-12-27T03:58:18.067Z,100.00
2022-12-27T04:00:44.956Z,100.00
2022-12-27T04:03:12.145Z,100.00
2022-12-27T04:05:39.017Z,100.00
2022-12-27T04:08:24.704Z,100.00
2022-12-27T04:11:10.265Z,100.00
2022-12-27T04:13:55.590Z,100.00
2022-12-27T04:16:41.194Z,100.00
2022-12-27T04:19:26.704Z,100.00
2022-12-27T04:22:12.160Z,100.00
2022-12-27T04:24:57.803Z,100.00
2022-12-27T04:27:43.563Z,100.00
2022-12-27T04:30:29.335Z,100.00
2022-12-27T04:33:15.075Z,100.00
2022-12-27T04:35:41.926Z,100.00
2022-12-27T04:38:08.817Z,100.00
2022-12-27T04:40:54.433Z,100.00
2022-12-27T04:43:39.959Z,100.00
2022-12-27T04:46:31.518Z,100.00
2022-12-27T04:49:33.662Z,100.00
2022-12-27T04:52:20.016Z,100.00
2022-12-27T04:54:59.108Z,100.00
2022-12-27T04:57:27.251Z,100.00
2022-12-27T05:00:12.739Z,100.00
2022-12-27T05:02:40.330Z,100.00
2022-12-27T05:05:07.768Z,100.00
2022-12-27T05:07:53.389Z,100.00
2022-12-27T05:10:39.221Z,100.00
2022-12-27T05:13:24.802Z,100.00
2022-12-27T05:15:51.625Z,100.00
2022-12-27T05:18:18.577Z,100.00
2022-12-27T05:20:45.451Z,100.00
2022-12-27T05:23:31.030Z,100.00
2022-12-27T05:25:57.843Z,100.00
2022-12-27T05:28:24.670Z,100.00
2022-12-27T05:30:51.497Z,100.00
2022-12-27T05:33:18.357Z,100.00
2022-12-27T05:35:45.269Z,100.00
2022-12-27T05:38:12.215Z,100.00
2022-12-27T05:40:39.025Z,100.00
2022-12-27T05:43:05.863Z,100.00
2022-12-27T05:45:32.777Z,100.00
2022-12-27T05:48:02.724Z,100.00
2022-12-27T05:50:29.769Z,100.00
2022-12-27T05:53:09.993Z,100.00
2022-12-27T05:55:36.830Z,100.00
2022-12-27T05:58:03.703Z,100.00
2022-12-27T06:00:30.637Z,100.00
2022-12-27T06:02:57.550Z,100.00
2022-12-27T06:05:24.529Z,100.00
2022-12-27T06:07:51.387Z,100.00
2022-12-27T06:10:19.992Z,100.00
2022-12-27T06:12:46.788Z,100.00
2022-12-27T06:15:13.668Z,100.00
2022-12-27T06:17:40.525Z,100.00
2022-12-27T06:20:07.583Z,100.00
2022-12-27T06:22:34.421Z,100.00
2022-12-27T06:25:01.247Z,100.00
2022-12-27T06:27:28.109Z,100.00
2022-12-27T06:29:54.927Z,100.00
2022-12-27T06:32:22.035Z,100.00
2022-12-27T06:34:48.872Z,100.00
2022-12-27T06:37:15.679Z,100.00
2022-12-27T06:39:42.518Z,100.00
2022-12-27T06:42:09.643Z,100.00
2022-12-27T06:44:36.551Z,100.00
2022-12-27T06:47:03.531Z,100.00
2022-12-27T06:49:30.415Z,100.00
2022-12-27T06:51:59.731Z,100.00
2022-12-27T06:54:27.042Z,100.00
2022-12-27T06:56:56.169Z,100.00
2022-12-27T06:59:23.457Z,100.00
2022-12-27T07:01:50.371Z,100.00
2022-12-27T07:04:17.540Z,100.00
2022-12-27T07:06:44.374Z,100.00
2022-12-27T07:09:11.275Z,100.00
2022-12-27T07:11:38.194Z,100.00
2022-12-27T07:14:08.341Z,100.00
2022-12-27T07:16:35.236Z,100.00
2022-12-27T07:19:02.181Z,100.00
2022-12-27T07:21:29.615Z,100.00
2022-12-27T07:23:56.816Z,100.00
2022-12-27T07:26:26.799Z,100.00
2022-12-27T07:28:54.670Z,100.00
2022-12-27T07:31:23.897Z,100.00
2022-12-27T07:33:51.049Z,100.00
2022-12-27T07:36:25.264Z,100.00
2022-12-27T07:38:52.356Z,100.00
2022-12-27T07:41:19.491Z,100.00
2022-12-27T07:43:46.350Z,100.00
2022-12-27T07:46:17.439Z,100.00
2022-12-27T07:48:44.524Z,100.00
2022-12-27T07:51:11.834Z,100.00
2022-12-27T07:53:39.072Z,100.00
2022-12-27T07:56:23.472Z,100.00
2022-12-27T07:58:53.666Z,100.00
2022-12-27T08:01:21.429Z,100.00
2022-12-27T08:03:48.610Z,100.00
2022-12-27T08:06:23.645Z,100.00
2022-12-27T08:08:51.389Z,100.00
2022-12-27T08:11:18.739Z,100.00
2022-12-27T08:13:45.647Z,100.00
2022-12-27T08:16:19.857Z,100.00
2022-12-27T08:18:46.844Z,100.00
2022-12-27T08:21:15.001Z,100.00
2022-12-27T08:23:42.134Z,100.00
2022-12-27T08:26:09.190Z,100.00
2022-12-27T08:28:36.100Z,100.00
2022-12-27T08:31:05.464Z,100.00
2022-12-27T08:33:32.312Z,100.00
2022-12-27T08:36:11.437Z,100.00
2022-12-27T08:38:52.962Z,100.00
2022-12-27T08:41:20.615Z,100.00
2022-12-27T08:43:47.988Z,100.00
2022-12-27T08:46:14.881Z,100.00
2022-12-27T08:48:41.884Z,100.00
2022-12-27T08:51:13.754Z,100.00
2022-12-27T08:53:42.476Z,100.00
2022-12-27T08:56:09.284Z,100.00
2022-12-27T08:58:36.501Z,100.00
2022-12-27T09:01:10.264Z,100.00
2022-12-27T09:03:37.183Z,100.00
2022-12-27T09:06:10.987Z,100.00
2022-12-27T09:08:38.221Z,100.00
2022-12-27T09:11:09.166Z,100.00
2022-12-27T09:13:36.076Z,100.00
2022-12-27T09:16:06.590Z,100.00
2022-12-27T09:18:33.571Z,100.00
2022-12-27T09:21:04.903Z,100.00
2022-12-27T09:23:31.717Z,100.00
2022-12-27T09:25:58.577Z,100.00
2022-12-27T09:28:25.454Z,100.00
2022-12-27T09:30:52.299Z,100.00
2022-12-27T09:33:19.221Z,100.00
2022-12-27T09:35:46.215Z,100.00
2022-12-27T09:38:13.031Z,100.00
2022-12-27T09:40:50.647Z,100.00
2022-12-27T09:43:25.402Z,100.00
2022-12-27T09:45:56.577Z,100.00
2022-12-27T09:48:38.541Z,100.00
2022-12-27T09:51:09.917Z,100.00
2022-12-27T09:53:55.346Z,100.00
2022-12-27T09:56:46.894Z,100.00
2022-12-27T09:59:21.771Z,100.00
2022-12-27T10:01:50.013Z,100.00
2022-12-27T10:04:17.950Z,100.00
2022-12-27T10:06:44.810Z,100.00
2022-12-27T10:09:30.239Z,100.00
2022-12-27T10:12:29.952Z,100.00
2022-12-27T10:15:08.904Z,100.00
2022-12-27T10:17:38.519Z,100.00
2022-12-27T10:20:08.131Z,100.00
2022-12-27T10:22:42.225Z,100.00
2022-12-27T10:25:13.289Z,100.00
2022-12-27T10:27:41.484Z,100.00
2022-12-27T10:30:16.383Z,100.00
2022-12-27T10:32:43.787Z,100.00
2022-12-27T10:35:14.164Z,100.00
2022-12-27T10:37:40.934Z,100.00
2022-12-27T10:40:10.913Z,100.00
2022-12-27T10:42:39.703Z,100.00
2022-12-27T10:45:26.553Z,100.00
2022-12-27T10:47:58.373Z,100.00
2022-12-27T10:50:28.497Z,100.00
2022-12-27T10:52:57.676Z,100.00
2022-12-27T10:55:33.370Z,99.67
2022-12-27T10:58:18.698Z,98.86
2022-12-27T11:00:58.085Z,98.62
2022-12-27T11:03:26.221Z,99.83
2022-12-27T11:06:00.497Z,100.00
2022-12-27T11:08:27.415Z,100.00
2022-12-27T11:11:11.723Z,100.00
2022-12-27T11:13:38.607Z,100.00
2022-12-27T11:16:06.209Z,98.49
2022-12-27T11:18:36.260Z,97.00
2022-12-27T11:21:03.456Z,97.78
2022-12-27T11:23:36.024Z,98.20
2022-12-27T11:26:04.873Z,97.88
2022-12-27T11:28:39.197Z,98.16
2022-12-27T11:31:16.805Z,96.03
2022-12-27T11:33:51.401Z,98.86
2022-12-27T11:36:24.138Z,97.22
2022-12-27T11:38:51.071Z,96.34
2022-12-27T11:41:37.758Z,94.95
2022-12-27T11:44:13.548Z,96.71
2022-12-27T11:46:44.053Z,94.32
2022-12-27T11:49:19.799Z,93.50
2022-12-27T11:51:53.092Z,96.08
2022-12-27T11:54:29.769Z,97.80
2022-12-27T11:57:05.731Z,94.76
2022-12-27T11:59:50.988Z,98.09
2022-12-27T12:02:25.089Z,96.40
2022-12-27T12:05:07.201Z,98.88
2022-12-27T12:07:37.007Z,97.91
2022-12-27T12:10:14.318Z,97.72
2022-12-27T12:13:00.672Z,98.48
2022-12-27T12:15:30.539Z,99.35
2022-12-27T12:18:03.184Z,100.00
2022-12-27T12:20:29.965Z,100.00
2022-12-27T12:23:05.796Z,100.00
2022-12-27T12:25:43.371Z,100.00
2022-12-27T12:28:30.383Z,100.00
2022-12-27T12:30:57.006Z,97.89
2022-12-27T12:33:26.826Z,99.03
2022-12-27T12:36:02.601Z,99.14
2022-12-27T12:38:29.389Z,100.00
2022-12-27T12:41:02.164Z,100.00
2022-12-27T12:43:47.575Z,100.00
2022-12-27T12:46:20.566Z,100.00
2022-12-27T12:49:04.363Z,99.26
2022-12-27T12:51:49.154Z,100.00
2022-12-27T12:54:20.283Z,100.00
2022-12-27T12:56:47.087Z,100.00
2022-12-27T12:59:38.904Z,100.00
2022-12-27T13:02:24.771Z,100.00
2022-12-27T13:04:51.665Z,98.91
2022-12-27T13:07:18.489Z,100.00
2022-12-27T13:10:04.121Z,100.00
2022-12-27T13:12:33.961Z,100.00
2022-12-27T13:15:06.654Z,100.00
2022-12-27T13:17:42.667Z,100.00
2022-12-27T13:20:18.467Z,100.00
2022-12-27T13:22:45.860Z,100.00
2022-12-27T13:25:15.593Z,100.00
2022-12-27T13:27:57.499Z,100.00
2022-12-27T13:30:29.608Z,100.00
2022-12-27T13:33:16.643Z,100.00
2022-12-27T13:36:02.344Z,100.00
2022-12-27T13:38:35.021Z,100.00
2022-12-27T13:41:17.162Z,100.00
2022-12-27T13:44:05.384Z,98.96
2022-12-27T13:46:46.244Z,100.00
2022-12-27T13:49:15.868Z,100.00
2022-12-27T13:51:44.536Z,99.21
2022-12-27T13:54:11.353Z,100.00
2022-12-27T13:56:55.364Z,98.92
2022-12-27T13:59:25.287Z,100.00
2022-12-27T14:02:12.179Z,100.00
2022-12-27T14:04:42.356Z,99.69
2022-12-27T14:07:09.139Z,100.00
2022-12-27T14:09:50.738Z,99.85
2022-12-27T14:12:17.540Z,98.31
2022-12-27T14:14:45.621Z,99.12
2022-12-27T14:17:31.293Z,99.87
2022-12-27T14:20:06.908Z,97.96
2022-12-27T14:22:59.517Z,98.66
2022-12-27T14:25:32.553Z,97.41
2022-12-27T14:28:15.466Z,96.77
2022-12-27T14:30:55.212Z,96.21
2022-12-27T14:33:30.993Z,97.98
2022-12-27T14:36:16.516Z,99.68
2022-12-27T14:39:08.568Z,98.29
2022-12-27T14:41:44.461Z,100.00
2022-12-27T14:44:23.254Z,99.44
2022-12-27T14:47:08.657Z,97.67
2022-12-27T14:50:04.019Z,98.43
2022-12-27T14:53:06.857Z,97.75
2022-12-27T14:55:41.830Z,97.67
2022-12-27T14:58:11.728Z,97.68
2022-12-27T15:00:57.443Z,99.00
2022-12-27T15:03:43.388Z,99.27
2022-12-27T15:06:15.519Z,98.37
2022-12-27T15:09:07.181Z,98.69
2022-12-27T15:11:37.143Z,98.19
2022-12-27T15:14:06.892Z,96.63
2022-12-27T15:16:45.865Z,97.65
2022-12-27T15:19:19.476Z,98.16
2022-12-27T15:21:49.145Z,99.39
2022-12-27T15:24:29.869Z,98.79
2022-12-27T15:26:59.870Z,100.00
2022-12-27T15:29:35.866Z,100.00
2022-12-27T15:32:05.487Z,100.00
2022-12-27T15:34:32.404Z,100.00
2022-12-27T15:36:59.396Z,100.00
2022-12-27T15:39:29.340Z,100.00
2022-12-27T15:42:14.339Z,100.00
2022-12-27T15:44:56.168Z,100.00
2022-12-27T15:47:32.487Z,100.00
2022-12-27T15:50:22.384Z,100.00
2022-12-27T15:52:54.934Z,100.00
2022-12-27T15:55:40.446Z,100.00
2022-12-27T15:58:23.016Z,100.00
2022-12-27T16:01:08.499Z,100.00
2022-12-27T16:03:37.004Z,100.00
2022-12-27T16:06:05.036Z,100.00
2022-12-27T16:08:35.024Z,100.00
2022-12-27T16:11:03.139Z,100.00
2022-12-27T16:13:41.413Z,100.00
2022-12-27T16:16:30.104Z,100.00
2022-12-27T16:19:17.219Z,100.00
2022-12-27T16:21:45.693Z,100.00
2022-12-27T16:24:20.461Z,100.00
2022-12-27T16:26:56.957Z,100.00
2022-12-27T16:29:26.372Z,100.00
2022-12-27T16:32:11.440Z,100.00
2022-12-27T16:34:38.596Z,100.00
2022-12-27T16:37:05.457Z,100.00
2022-12-27T16:39:51.693Z,100.00
2022-12-27T16:42:23.304Z,100.00
2022-12-27T16:44:53.162Z,100.00
2022-12-27T16:47:30.213Z,100.00
2022-12-27T16:49:57.071Z,100.00
2022-12-27T16:52:27.162Z,100.00
2022-12-27T16:55:12.249Z,100.00
2022-12-27T16:57:40.867Z,100.00
2022-12-27T17:00:07.671Z,100.00
2022-12-27T17:02:39.836Z,100.00
2022-12-27T17:05:29.982Z,100.00
2022-12-27T17:07:56.797Z,100.00
2022-12-27T17:10:42.114Z,100.00
2022-12-27T17:13:15.294Z,100.00
2022-12-27T17:16:13.532Z,100.00
2022-12-27T17:18:52.507Z,100.00
2022-12-27T17:21:27.764Z,100.00
2022-12-27T17:24:05.447Z,100.00
2022-12-27T17:26:38.387Z,100.00
2022-12-27T17:29:05.199Z,100.00
2022-12-27T17:31:33.091Z,100.00
2022-12-27T17:34:24.365Z,100.00
2022-12-27T17:37:03.066Z,100.00
2022-12-27T17:39:49.174Z,100.00
2022-12-27T17:42:42.129Z,100.00
2022-12-27T17:45:17.610Z,100.00
2022-12-27T17:47:54.425Z,100.00
2022-12-27T17:50:23.906Z,100.00
2022-12-27T17:53:27.677Z,100.00
2022-12-27T17:56:20.916Z,100.00
2022-12-27T17:58:48.784Z,100.00
2022-12-27T18:01:15.850Z,100.00
2022-12-27T18:03:44.671Z,100.00
2022-12-27T18:06:11.650Z,100.00
2022-12-27T18:08:39.700Z,100.00
2022-12-27T18:11:07.004Z,100.00
2022-12-27T18:13:37.825Z,100.00
2022-12-27T18:16:19.473Z,100.00
2022-12-27T18:18:47.669Z,100.00
2022-12-27T18:21:44.647Z,100.00
2022-12-27T18:24:23.336Z,100.00
2022-12-27T18:26:59.515Z,100.00
2022-12-27T18:29:26.433Z,100.00
2022-12-27T18:31:55.594Z,100.00
2022-12-27T18:34:28.834Z,100.00
2022-12-27T18:37:00.302Z,100.00
2022-12-27T18:39:32.211Z,100.00
2022-12-27T18:42:00.378Z,100.00
2022-12-27T18:44:29.171Z,100.00
2022-12-27T18:46:58.279Z,100.00
2022-12-27T18:49:32.475Z,100.00
2022-12-27T18:52:00.072Z,100.00
2022-12-27T18:54:30.295Z,100.00
2022-12-27T18:56:57.662Z,100.00
2022-12-27T18:59:36.001Z,100.00
2022-12-27T19:02:22.888Z,100.00
2022-12-27T19:05:12.535Z,100.00
2022-12-27T19:07:39.729Z,100.00
2022-12-27T19:10:18.488Z,100.00
2022-12-27T19:12:46.224Z,100.00
2022-12-27T19:15:22.624Z,100.00
2022-12-27T19:17:50.966Z,100.00
2022-12-27T19:20:20.723Z,100.00
2022-12-27T19:22:47.502Z,100.00
2022-12-27T19:25:20.401Z,100.00
2022-12-27T19:27:56.565Z,100.00
2022-12-27T19:30:34.311Z,100.00
2022-12-27T19:33:02.374Z,100.00
2022-12-27T19:35:29.211Z,100.00
2022-12-27T19:37:57.194Z,100.00
2022-12-27T19:40:24.242Z,100.00
2022-12-27T19:42:51.103Z,100.00
2022-12-27T19:45:19.240Z,100.00
2022-12-27T19:47:49.327Z,100.00
2022-12-27T19:50:16.818Z,100.00
2022-12-27T19:52:43.711Z,100.00
2022-12-27T19:55:15.874Z,100.00
2022-12-27T19:57:44.055Z,100.00
2022-12-27T20:00:15.410Z,100.00
2022-12-27T20:02:42.346Z,100.00
2022-12-27T20:05:10.135Z,100.00
2022-12-27T20:07:37.198Z,100.00
2022-12-27T20:10:04.760Z,100.00
2022-12-27T20:12:31.599Z,100.00
2022-12-27T20:14:58.420Z,100.00
2022-12-27T20:17:25.296Z,100.00
2022-12-27T20:19:52.267Z,100.00
2022-12-27T20:22:19.137Z,100.00
2022-12-27T20:24:47.081Z,100.00
2022-12-27T20:27:14.052Z,100.00
2022-12-27T20:29:40.850Z,100.00
2022-12-27T20:32:07.922Z,100.00
2022-12-27T20:34:34.753Z,100.00
2022-12-27T20:37:01.763Z,100.00
2022-12-27T20:39:28.613Z,100.00
2022-12-27T20:41:56.168Z,100.00
2022-12-27T20:44:23.001Z,100.00
2022-12-27T20:46:50.651Z,100.00
2022-12-27T20:49:17.487Z,100.00
2022-12-27T20:51:44.304Z,100.00
2022-12-27T20:54:13.174Z,100.00
2022-12-27T20:56:40.002Z,100.00
2022-12-27T20:59:07.117Z,100.00
2022-12-27T21:01:34.229Z,100.00
2022-12-27T21:04:01.153Z,100.00
2022-12-27T21:06:29.078Z,100.00
2022-12-27T21:08:58.256Z,100.00
2022-12-27T21:11:27.125Z,100.00
2022-12-27T21:13:54.477Z,100.00
2022-12-27T21:16:22.578Z,100.00
2022-12-27T21:18:49.542Z,100.00
2022-12-27T21:21:19.777Z,100.00
2022-12-27T21:23:47.772Z,100.00
2022-12-27T21:26:21.792Z,100.00
2022-12-27T21:28:49.039Z,100.00
2022-12-27T21:31:17.240Z,100.00
2022-12-27T21:33:44.663Z,100.00
2022-12-27T21:36:15.989Z,100.00
2022-12-27T21:38:43.021Z,100.00
2022-12-27T21:41:20.498Z,100.00
2022-12-27T21:43:48.795Z,100.00
2022-12-27T21:46:19.807Z,100.00
2022-12-27T21:48:47.055Z,100.00
2022-12-27T21:51:15.374Z,100.00
2022-12-27T21:53:42.553Z,100.00
2022-12-27T21:56:10.957Z,100.00
2022-12-27T21:58:38.807Z,100.00
2022-12-27T22:01:08.919Z,100.00
2022-12-27T22:03:37.374Z,100.00
2022-12-27T22:06:10.682Z,100.00
2022-12-27T22:08:37.743Z,100.00
2022-12-27T22:11:04.693Z,100.00
2022-12-27T22:13:32.835Z,100.00
2022-12-27T22:16:00.858Z,100.00
2022-12-27T22:18:31.318Z,100.00
2022-12-27T22:20:59.280Z,100.00
2022-12-27T22:23:26.463Z,100.00
2022-12-27T22:25:53.274Z,100.00
2022-12-27T22:28:20.835Z,100.00
2022-12-27T22:30:47.715Z,100.00
2022-12-27T22:33:14.943Z,100.00
2022-12-27T22:35:42.180Z,100.00
2022-12-27T22:38:09.417Z,100.00
2022-12-27T22:40:46.069Z,100.00
2022-12-27T22:43:13.939Z,100.00
2022-12-27T22:45:41.877Z,100.00
2022-12-27T22:48:08.802Z,100.00
2022-12-27T22:50:37.008Z,100.00
2022-12-27T22:53:03.887Z,100.00
2022-12-27T22:55:30.723Z,100.00
2022-12-27T22:57:57.553Z,100.00
2022-12-27T23:00:24.357Z,100.00
2022-12-27T23:02:51.258Z,100.00
2022-12-27T23:05:18.125Z,100.00
2022-12-27T23:08:05.748Z,100.00
2022-12-27T23:10:31.773Z,100.00
2022-12-27T23:12:58.612Z,100.00
2022-12-27T23:15:25.563Z,100.00
2022-12-27T23:17:52.975Z,100.00
2022-12-27T23:20:19.919Z,100.00
2022-12-27T23:22:46.739Z,100.00
2022-12-27T23:25:13.649Z,100.00
2022-12-27T23:27:40.515Z,100.00
2022-12-27T23:30:07.661Z,100.00
2022-12-27T23:32:34.480Z,100.00
2022-12-27T23:35:01.468Z,100.00
2022-12-27T23:37:28.390Z,100.00
2022-12-27T23:39:55.195Z,100.00
2022-12-27T23:42:22.019Z,100.00
2022-12-27T23:44:48.899Z,100.00
2022-12-27T23:47:15.754Z,100.00
2022-12-27T23:49:42.562Z,100.00
2022-12-27T23:52:09.419Z,100.00
2022-12-27T23:54:36.521Z,100.00
2022-12-27T23:57:20.363Z,100.00
2022-12-27T23:59:49.768Z,100.00
